• Join FlightAware (Why Join?)
  • Login
  • US Flag 
09:42AM EDT


 

Airport Tracker/Info


-or-


 

Live Flight TrackerFlight Track Log ✈ VH-VFC ✈ 16-Aug-2013 ✈ YSBK / BWU - YMND / MTL

Flight Track Log - Related Links

Times and Time Zones

All times are in EDT time to prevent confusion due to time zone crossing. See the VH-VFC flight status page for this flight to view local times or setup timezone preferences in your user account.

Time Position Orientation Groundspeed Altitude Reporting Facility
EDT Latitude Longitude Course Direction KTS MPH feet Rate Location/Type
10:03PM -33.9114 150.9707 308° West 65 75 800  Level Aus ATC (RADAR)
10:04PM -33.9048 150.9597 306° West 65 75 720 Descending Aus ATC (RADAR)
10:04PM -33.8958 150.9467 310° West 61 70 1,800 1,140 Climbing Aus ATC (RADAR)
10:06PM -33.8759 150.9123 305° West 75 86 2,900 360 Climbing Aus ATC (RADAR)
10:07PM -33.8569 150.8871 312° West 91 105 2,900  Level Aus ATC (RADAR)
10:08PM -33.8470 150.8731 310° West 92 106 2,900  Level Aus ATC (RADAR)
10:08PM -33.8348 150.8646 330° Northwest 88 101 2,900 60 Level Aus ATC (RADAR)
10:09PM -33.8156 150.8575 343° North 88 101 3,000  Climbing Aus ATC (RADAR)
10:10PM -33.7936 150.8516 348° North 86 99 3,000  Level Aus ATC (RADAR)
10:11PM -33.7633 150.8666 22° Northeast 89 102 3,000  Level Aus ATC (RADAR)
10:12PM -33.7434 150.8785 26° Northeast 86 99 3,000  Level Aus ATC (RADAR)
10:13PM -33.7295 150.8975 49° Northeast 90 104 3,000 -120 Level Aus ATC (RADAR)
10:14PM -33.7248 150.9158 73° East 96 110 2,900  Descending Aus ATC (RADAR)
10:15PM -33.7201 150.9447 79° East 93 107 3,000  Climbing Aus ATC (RADAR)
10:16PM -33.7000 150.9893 62° Northeast 90 104 2,900  Descending Aus ATC (RADAR)
10:18PM -33.6665 150.9884 359° North 90 104 3,000 -180 Climbing Aus ATC (RADAR)
10:19PM -33.6536 150.9673 306° West 91 105 2,500 -600 Descending Aus ATC (RADAR)
10:20PM -33.6474 150.9452 288° West 92 106 2,100 -300 Descending Aus ATC (RADAR)
10:20PM -33.6398 150.9201 290° West 93 107 2,100 -360 Level Aus ATC (RADAR)
10:23PM -33.6218 150.8482 287° West 90 104 1,000 -480 Descending Aus ATC (RADAR)
10:24PM -33.6136 150.8166 287° West 96 110 500 -480 Descending Aus ATC (RADAR)
10:24PM -33.6092 150.7997 287° West 100 115 300 360 Descending Aus ATC (RADAR)
10:25PM -33.6049 150.7856 290° West 88 101 900 840 Climbing Aus ATC (RADAR)
10:26PM -33.5919 150.7923 23° Northeast 82 94 1,400 660 Climbing Aus ATC (RADAR)
10:27PM -33.5749 150.8059 34° Northeast 71 82 2,100 540 Climbing Aus ATC (RADAR)
10:27PM -33.5610 150.8131 23° Northeast 72 83 2,500 540 Climbing Aus ATC (RADAR)
10:28PM -33.5505 150.8203 30° Northeast 71 82 2,900 600 Climbing Aus ATC (RADAR)
10:29PM -33.5362 150.8288 26° Northeast 74 85 3,400 540 Climbing Aus ATC (RADAR)
10:29PM -33.5272 150.8391 44° Northeast 76 87 3,700 480 Climbing Aus ATC (RADAR)
10:30PM -33.5124 150.8477 26° Northeast 70 81 4,100 420 Climbing Aus ATC (RADAR)
10:32PM -33.4736 150.8755 31° Northeast 79 91 5,000 300 Climbing Aus ATC (RADAR)
10:33PM -33.4606 150.8869 36° Northeast 93 107 5,000  Level Aus ATC (RADAR)
10:34PM -33.4436 150.8992 31° Northeast 88 101 5,000  Level Aus ATC (RADAR)
10:34PM -33.4263 150.9082 23° Northeast 95 109 5,000  Level Aus ATC (RADAR)
10:35PM -33.4055 150.9229 30° Northeast 91 105 5,000  Level Aus ATC (RADAR)
10:36PM -33.3866 150.9371 32° Northeast 90 104 5,000  Level Aus ATC (RADAR)
10:37PM -33.3756 150.9464 35° Northeast 93 107 5,000  Level Aus ATC (RADAR)
10:40PM -33.3003 151.0024 32° Northeast 90 104 5,000 -60 Level Aus ATC (RADAR)
10:41PM -33.2828 151.0165 34° Northeast 95 109 4,900  Descending Aus ATC (RADAR)
10:42PM -33.2645 151.0289 30° Northeast 85 98 5,000  Climbing Aus ATC (RADAR)
10:44PM -33.2317 151.0569 35° Northeast 92 106 5,000 -120 Level Aus ATC (RADAR)
10:44PM -33.2123 151.0719 33° Northeast 92 106 4,800 -120 Descending Aus ATC (RADAR)
10:45PM -33.1950 151.0818 26° Northeast 83 96 4,900 60 Climbing Aus ATC (RADAR)
10:46PM -33.1805 151.0901 26° Northeast 92 106 4,900  Level Aus ATC (RADAR)
10:47PM -33.1573 151.1073 32° Northeast 93 107 4,900  Level Aus ATC (RADAR)
10:49PM -33.1373 151.1216 31° Northeast  Level FlightAware Approximate
10:56PM -33.0561 151.2007 43° Northeast  Level FlightAware Approximate
10:57PM -33.0450 151.2128 42° Northeast  Level FlightAware Approximate
10:58PM -33.0339 151.2249 42° Northeast  Level FlightAware Approximate
10:59PM -33.0228 151.2370 42° Northeast  Level FlightAware Approximate
10:59PM -32.9257 151.3495 42° Northeast 96 110 4,900  Level Aus ATC (RADAR)
11:00PM -32.9069 151.3705 43° Northeast 90 104 4,800  Descending Aus ATC (RADAR)
11:01PM -32.8811 151.3856 26° Northeast 91 105 4,900 -60 Climbing Aus ATC (RADAR)
11:02PM -32.8689 151.3991 43° Northeast 93 107 4,700 -360 Descending Aus ATC (RADAR)
11:03PM -32.8564 151.4255 61° Northeast 99 114 4,400 -420 Descending Aus ATC (RADAR)
11:04PM -32.8201 151.4607 39° Northeast 88 101 3,700 -420 Descending Aus ATC (RADAR)
11:05PM -32.7988 151.4815 39° Northeast 92 106 3,300 -360 Descending Aus ATC (RADAR)
11:06PM -32.7888 151.4991 56° Northeast 93 107 3,100 -240 Descending Aus ATC (RADAR)
11:07PM -32.7794 151.5142 54° Northeast 91 105 3,000 -120 Descending Aus ATC (RADAR)
11:08PM -32.7626 151.5251 29° Northeast 85 98 3,000 -240 Level Aus ATC (RADAR)
11:09PM -32.7656 151.5673 95° East 107 123 2,500 -300 Descending Aus ATC (RADAR)
11:10PM -32.7892 151.5857 147° Southeast 105 121 2,300 -240 Descending Aus ATC (RADAR)
11:11PM -32.7837 151.5662 288° West 103 119 2,100 -180 Descending Aus ATC (RADAR)
11:12PM -32.7730 151.5536 315° West 91 105 2,100 60 Level Aus ATC (RADAR)
11:12PM -32.7598 151.5389 317° Northwest 87 100 2,200 -300 Climbing Aus ATC (RADAR)
11:14PM -32.7282 151.5128 325° Northwest 90 104 1,500 -540 Descending Aus ATC (RADAR)
11:15PM -32.7082 151.5033 338° Northwest 92 106 1,000 -360 Descending Aus ATC (RADAR)
11:15PM -32.6950 151.4953 333° Northwest 92 106 1,000 -120 Level Aus ATC (RADAR)
11:16PM -32.6964 151.4733 266° West 93 107 900 -240 Descending Aus ATC (RADAR)
11:17PM -32.7071 151.4698 195° South 82 94 700 -480 Descending Aus ATC (RADAR)
11:17PM -32.7087 151.4843 98° East 66 76 300 -540 Descending Aus ATC (RADAR)